Time;durP1;ratioP1;P1;durP2;ratioP2;P2;SDS_P1;SDS_P2;PMS_P1;PMS_P2;Temp;Humidity;BMP_temperature;BMP_pressure;BME280_temperature;BME280_humidity;BME280_pressure;Samples;Min_cycle;Max_cycle;Signal;HPM_P1;HPM_P2
2022/11/11 08:43:17;;;;;;;12.27;7.50;;;;;;;6.15;100.00;100575.78;5108351;28;20930;-74
2022/11/11 08:46:04;;;;;;;8.93;7.47;;;;;;;6.85;100.00;100564.78;5105848;28;39961;-84
2022/11/11 08:48:50;;;;;;;8.80;7.03;;;;;;;7.42;99.52;100567.09;5105573;28;41767;-78
2022/11/11 08:51:37;;;;;;;10.13;7.40;;;;;;;7.77;93.95;100571.56;5106868;28;42807;-78
2022/11/11 08:54:23;;;;;;;9.23;6.33;;;;;;;8.11;91.58;100587.44;5107595;28;42746;-81
2022/11/11 08:57:08;;;;;;;8.83;7.83;;;;;;;8.49;89.56;100593.56;5107195;28;39020;-78
2022/11/11 08:59:56;;;;;;;7.37;6.60;;;;;;;8.74;87.81;100593.75;5108194;28;40956;-75
2022/11/11 09:02:41;;;;;;;8.00;6.93;;;;;;;8.80;86.28;100604.16;5107269;28;43817;-82
2022/11/11 09:05:27;;;;;;;7.60;6.47;;;;;;;8.93;85.85;100610.81;5105848;28;42148;-79
2022/11/11 09:08:14;;;;;;;11.20;6.80;;;;;;;8.99;84.95;100600.09;5106829;28;39972;-77
2022/11/11 09:11:00;;;;;;;14.13;8.13;;;;;;;9.17;83.79;100611.91;5105373;28;42850;-80
2022/11/11 09:13:47;;;;;;;9.57;7.27;;;;;;;9.31;82.34;100617.66;5106566;28;44090;-78
2022/11/11 09:16:35;;;;;;;17.33;7.57;;;;;;;9.47;81.82;100618.97;5097442;28;41930;-79
2022/11/11 09:19:21;;;;;;;7.60;6.37;;;;;;;9.56;80.80;100617.81;5102138;28;39380;-79
2022/11/11 09:22:07;;;;;;;7.23;6.53;;;;;;;9.65;79.53;100621.03;5106720;28;40365;-79
2022/11/11 09:24:53;;;;;;;7.73;6.60;;;;;;;9.82;79.57;100624.94;5105398;28;43397;-79
2022/11/11 09:27:40;;;;;;;8.60;7.67;;;;;;;9.96;79.13;100626.25;5106758;28;41024;-79
2022/11/11 09:30:27;;;;;;;7.33;6.43;;;;;;;10.02;78.45;100623.38;5106760;28;38969;-80
2022/11/11 09:33:17;;;;;;;7.53;6.73;;;;;;;10.11;77.83;100639.91;5105311;28;41649;-90
2022/11/11 09:36:03;;;;;;;8.37;6.30;;;;;;;10.14;78.11;100643.31;5107000;28;42118;-81
2022/11/11 09:38:49;;;;;;;8.10;7.10;;;;;;;10.20;77.44;100639.66;5106319;28;41154;-78
2022/11/11 09:41:48;;;;;;;9.20;8.30;;;;;;;10.23;76.65;100653.66;5105133;28;40012;-79
2022/11/11 09:44:47;;;;;;;10.37;7.03;;;;;;;10.34;76.48;100640.06;5107534;28;41613;-78
2022/11/11 09:47:41;;;;;;;8.37;7.20;;;;;;;10.51;74.86;100645.66;5106500;28;41969;-79
2022/11/11 09:50:33;;;;;;;8.20;7.00;;;;;;;10.63;74.69;100637.28;5107708;28;42141;-81
2022/11/11 09:53:25;;;;;;;7.37;6.67;;;;;;;10.84;74.72;100646.28;5099908;28;40166;-80
2022/11/11 09:56:15;;;;;;;8.73;7.83;;;;;;;10.93;73.76;100651.25;5092634;28;41864;-79
2022/11/11 09:59:08;;;;;;;7.83;7.03;;;;;;;10.93;73.61;100650.41;5093032;28;42466;-89
2022/11/11 10:01:57;;;;;;;8.30;7.47;;;;;;;11.05;74.05;100644.66;5093747;28;42085;-80
2022/11/11 10:04:52;;;;;;;8.37;7.17;;;;;;;11.28;73.50;100641.16;5092361;28;41344;-78
2022/11/11 10:07:45;;;;;;;8.60;7.37;;;;;;;11.55;72.21;100642.78;5092581;28;41865;-77
2022/11/11 10:10:40;;;;;;;8.07;7.27;;;;;;;11.72;71.33;100643.03;5092214;28;41395;-77
2022/11/11 10:13:29;;;;;;;6.83;6.23;;;;;;;11.69;71.46;100631.66;5092026;28;41386;-80
2022/11/11 10:16:24;;;;;;;9.83;8.93;;;;;;;11.76;70.54;100628.72;5091126;28;41354;-80
2022/11/11 10:19:25;;;;;;;8.83;8.03;;;;;;;11.96;71.03;100624.44;5093405;28;42675;-78
2022/11/11 10:22:20;;;;;;;8.80;8.00;;;;;;;12.22;70.77;100633.06;5091621;28;42770;-78
2022/11/11 10:25:20;;;;;;;8.63;7.43;;;;;;;12.44;70.10;100626.88;5093084;28;42957;-76
2022/11/11 10:28:13;;;;;;;9.23;8.23;;;;;;;12.85;69.37;100633.09;5091928;28;41621;-81
2022/11/11 10:31:03;;;;;;;8.97;8.07;;;;;;;13.61;66.61;100640.28;5092492;28;42405;-78
2022/11/11 10:33:54;;;;;;;8.33;7.43;;;;;;;14.77;64.27;100645.28;5091935;28;41926;-83
2022/11/11 10:36:49;;;;;;;8.60;7.70;;;;;;;15.50;61.10;100652.09;5091468;28;42659;-80
2022/11/11 10:39:48;;;;;;;7.37;6.67;;;;;;;15.55;60.75;100656.28;5092078;28;39671;-86
2022/11/11 10:42:36;;;;;;;8.20;7.50;;;;;;;15.40;60.99;100647.25;5091124;28;42719;-78
2022/11/11 10:45:27;;;;;;;8.13;7.33;;;;;;;15.08;61.64;100627.59;5089990;28;43177;-79
2022/11/11 10:48:18;;;;;;;7.50;6.80;;;;;;;15.02;61.73;100645.75;5092909;28;42440;-83
2022/11/11 10:51:06;;;;;;;8.47;7.67;;;;;;;15.18;59.90;100656.50;5091780;28;39900;-80
2022/11/11 10:54:01;;;;;;;8.27;7.57;;;;;;;15.77;59.51;100640.81;5091475;28;41138;-79
2022/11/11 10:56:54;;;;;;;8.27;7.57;;;;;;;15.89;59.33;100620.56;5091553;28;41847;-79
2022/11/11 10:59:46;;;;;;;9.60;8.60;;;;;;;16.27;59.26;100646.91;5091755;28;42664;-78
2022/11/11 11:02:40;;;;;;;8.83;7.93;;;;;;;16.46;58.54;100644.88;5092404;28;40650;-79
2022/11/11 11:05:31;;;;;;;8.80;7.60;;;;;;;16.69;57.72;100639.06;5090444;28;42277;-79
2022/11/11 11:08:23;;;;;;;8.13;7.43;;;;;;;17.02;55.88;100648.72;5090046;28;42894;-82
2022/11/11 11:11:16;;;;;;;8.63;7.57;;;;;;;17.80;54.56;100642.91;5091806;28;42075;-83
2022/11/11 11:14:08;;;;;;;7.23;6.57;;;;;;;18.77;53.42;100657.13;5091807;28;40486;-84
2022/11/11 11:17:44;;;;;;;8.07;7.27;;;;;;;19.92;51.27;100676.81;5091788;28;41353;-86
2022/11/11 11:20:30;;;;;;;7.23;6.63;;;;;;;21.26;47.98;100689.16;5091098;28;42539;-82
2022/11/11 11:23:35;;;;;;;7.70;7.07;;;;;;;23.44;44.56;100701.75;5092679;28;42194;-82
2022/11/11 11:26:21;;;;;;;7.37;6.73;;;;;;;25.79;40.65;100724.44;5091706;28;38901;-83
2022/11/11 11:29:08;;;;;;;6.27;5.67;;;;;;;27.76;37.23;100738.09;5089774;28;41796;-81
2022/11/11 11:31:57;;;;;;;6.20;5.70;;;;;;;28.67;35.48;100732.91;5091165;28;43083;-81
2022/11/11 11:34:46;;;;;;;5.67;5.27;;;;;;;30.52;32.87;100749.28;5090151;28;40538;-81
2022/11/11 11:37:32;;;;;;;4.95;4.55;;;;;;;32.24;31.17;100745.84;5089577;28;41037;-81
2022/11/11 11:40:18;;;;;;;4.13;3.83;;;;;;;33.51;29.11;100741.56;5099260;28;41840;-79
2022/11/11 11:43:25;;;;;;;4.18;3.78;;;;;;;34.62;25.60;100770.03;5102610;28;41822;-80
2022/11/11 11:46:28;;;;;;;4.28;3.53;;;;;;;34.73;25.90;100748.25;5101839;28;44814;-81
2022/11/11 11:49:26;;;;;;;3.33;3.13;;;;;;;34.46;24.97;100755.56;5100439;28;39023;-83
2022/11/11 11:52:21;;;;;;;2.97;2.78;;;;;;;33.98;25.93;100740.03;5096161;28;40870;-79
2022/11/11 11:55:15;;;;;;;3.33;3.00;;;;;;;32.97;26.58;100728.38;5095316;28;43389;-84
2022/11/11 11:58:19;;;;;;;3.00;2.75;;;;;;;33.57;26.44;100726.19;5092557;28;42095;-82
2022/11/11 12:01:11;;;;;;;3.47;2.88;;;;;;;33.27;27.21;100714.50;5092592;28;39939;-78
2022/11/11 12:04:31;;;;;;;3.35;2.90;;;;;;;33.74;26.80;100703.69;5091912;28;41994;-81
2022/11/11 12:07:29;;;;;;;3.03;2.83;;;;;;;33.94;26.01;100708.50;5090867;28;43089;-80
2022/11/11 12:10:29;;;;;;;3.45;3.25;;;;;;;33.26;26.54;100716.41;5091647;28;41987;-78
2022/11/11 12:13:28;;;;;;;4.05;3.75;;;;;;;33.35;26.59;100703.41;5090988;28;39795;-78
2022/11/11 12:16:25;;;;;;;3.40;3.20;;;;;;;33.38;26.80;100703.84;5091135;28;41141;-81
2022/11/11 12:19:36;;;;;;;3.10;2.90;;;;;;;33.50;26.09;100706.91;5093922;28;42792;-79
2022/11/11 12:22:45;;;;;;;4.05;3.75;;;;;;;33.22;25.67;100709.59;5098716;28;42197;-79
2022/11/11 12:25:44;;;;;;;3.43;3.23;;;;;;;32.44;26.52;100689.34;5091241;28;39863;-79
2022/11/11 12:28:45;;;;;;;4.03;3.60;;;;;;;32.39;26.99;100680.81;5091434;28;43122;-83
2022/11/11 12:31:47;;;;;;;4.45;4.05;;;;;;;32.67;26.28;100658.97;5090530;28;42281;-79
2022/11/11 12:34:56;;;;;;;4.53;4.13;;;;;;;33.03;25.53;100691.88;5090790;28;43122;-79
2022/11/11 12:37:50;;;;;;;4.05;3.75;;;;;;;33.49;25.85;100685.97;5091846;28;40816;-82
2022/11/11 12:40:46;;;;;;;3.77;3.47;;;;;;;33.78;25.50;100698.66;5090434;28;41641;-85
2022/11/11 12:43:41;;;;;;;4.17;3.93;;;;;;;33.82;25.78;100692.56;5090379;28;41727;-78
2022/11/11 12:46:37;;;;;;;4.70;3.93;;;;;;;34.13;24.93;100693.97;5091338;28;40814;-85
2022/11/11 12:49:36;;;;;;;4.30;3.90;;;;;;;33.22;25.96;100664.81;5091845;28;39718;-83
2022/11/11 12:52:36;;;;;;;4.73;4.33;;;;;;;30.85;28.34;100665.16;5091375;28;41778;-86
2022/11/11 12:55:27;;;;;;;4.70;4.30;;;;;;;29.50;29.23;100658.09;5089794;28;42025;-86
2022/11/11 12:58:24;;;;;;;4.53;4.23;;;;;;;28.67;29.95;100648.38;5091960;28;42384;-78
2022/11/11 13:01:20;;;;;;;4.50;4.10;;;;;;;27.61;30.87;100638.97;5089945;28;40143;-78
2022/11/11 13:04:29;;;;;;;5.23;4.73;;;;;;;26.01;32.78;100634.44;5090701;28;41979;-80
2022/11/11 13:07:41;;;;;;;5.30;4.80;;;;;;;24.60;34.79;100596.56;5089488;28;43329;-80
2022/11/11 13:10:36;;;;;;;4.60;4.20;;;;;;;23.70;36.57;100590.41;5089480;28;41522;-80
2022/11/11 13:13:36;;;;;;;5.67;4.97;;;;;;;22.86;38.00;100595.09;5090910;28;39946;-79
2022/11/11 13:16:24;;;;;;;5.87;4.67;;;;;;;22.17;39.33;100591.91;5072264;28;40860;-80
2022/11/11 13:19:17;;;;;;;5.57;5.10;;;;;;;21.52;40.26;100573.84;5089488;28;41568;-79
2022/11/11 13:22:14;;;;;;;4.60;4.20;;;;;;;21.14;41.66;100568.84;5087798;28;41978;-79
2022/11/11 13:25:05;;;;;;;5.50;5.00;;;;;;;20.62;42.26;100567.50;5088940;28;40238;-79
2022/11/11 13:27:59;;;;;;;5.83;5.23;;;;;;;20.02;43.12;100543.41;5089563;28;42387;-79
2022/11/11 13:30:57;;;;;;;4.73;4.10;;;;;;;19.67;44.06;100557.59;5093610;28;42470;-82
2022/11/11 13:33:47;;;;;;;5.23;4.63;;;;;;;19.36;44.91;100558.06;5092543;28;42334;-84
2022/11/11 13:36:41;;;;;;;6.87;5.13;;;;;;;19.27;45.22;100548.00;5091224;28;39991;-82
2022/11/11 13:39:30;;;;;;;5.67;4.60;;;;;;;19.07;45.61;100552.09;5093970;28;41744;-77
2022/11/11 13:42:24;;;;;;;5.50;5.00;;;;;;;18.92;47.07;100535.22;5092512;28;42621;-82
2022/11/11 13:45:28;;;;;;;6.10;4.73;;;;;;;19.46;47.30;100532.25;5092604;28;42158;-81
2022/11/11 13:48:21;;;;;;;5.67;4.80;;;;;;;20.44;45.70;100542.84;5090966;28;41058;-79
2022/11/11 13:51:20;;;;;;;5.80;5.13;;;;;;;21.66;43.50;100554.72;5094032;28;44203;-85
2022/11/11 13:54:20;;;;;;;6.00;5.10;;;;;;;22.38;42.48;100556.84;5093679;28;43705;-80
2022/11/11 13:57:17;;;;;;;5.47;4.97;;;;;;;23.28;41.66;100558.91;5092714;28;41231;-81
2022/11/11 14:00:23;;;;;;;4.40;4.00;;;;;;;23.96;40.42;100569.97;5092311;28;40869;-82
2022/11/11 14:03:31;;;;;;;4.87;4.47;;;;;;;24.27;40.42;100581.56;5092811;28;41643;-83
2022/11/11 14:06:36;;;;;;;4.83;4.43;;;;;;;24.44;39.44;100564.63;5090479;28;42653;-83
2022/11/11 14:10:01;;;;;;;4.23;3.73;;;;;;;24.45;39.57;100577.19;5091831;28;41267;-81
2022/11/11 14:12:49;;;;;;;4.10;3.60;;;;;;;23.76;40.40;100566.34;5092309;28;39650;-83
2022/11/11 14:15:43;;;;;;;5.27;4.60;;;;;;;23.23;41.00;100558.47;5094119;28;42743;-81
2022/11/11 14:18:47;;;;;;;5.17;4.20;;;;;;;23.10;41.54;100559.69;5093884;28;43009;-83
2022/11/11 14:21:44;;;;;;;5.37;4.87;;;;;;;23.09;42.03;100553.41;5093905;28;41934;-81
2022/11/11 14:24:36;;;;;;;6.23;4.60;;;;;;;22.86;42.30;100557.28;5092346;28;38857;-81
2022/11/11 14:27:27;;;;;;;4.70;4.30;;;;;;;22.14;42.80;100555.25;5090748;28;42736;-80
2022/11/11 14:30:33;;;;;;;5.17;4.27;;;;;;;21.30;44.01;100546.91;5092329;28;42612;-78
2022/11/11 14:33:34;;;;;;;5.93;4.13;;;;;;;20.48;45.01;100542.63;5093067;28;42808;-78
2022/11/11 14:36:28;;;;;;;5.20;4.00;;;;;;;19.82;46.00;100538.63;5091988;28;40079;-80
2022/11/11 14:39:28;;;;;;;5.27;4.77;;;;;;;19.14;47.31;100521.16;5091401;28;41232;-80
2022/11/11 14:42:48;;;;;;;6.10;5.00;;;;;;;18.63;48.29;100515.81;5093217;28;43850;-84
2022/11/11 14:46:01;;;;;;;6.07;5.07;;;;;;;18.12;48.99;100517.50;5093448;28;42617;-81
2022/11/11 14:48:55;;;;;;;5.43;4.77;;;;;;;17.71;49.81;100512.19;5075908;28;41197;-77
2022/11/11 14:51:50;;;;;;;5.77;4.80;;;;;;;17.27;51.30;100512.38;5092146;28;40962;-79
2022/11/11 14:54:51;;;;;;;6.00;5.40;;;;;;;16.86;52.11;100505.13;5090293;28;42890;-76
2022/11/11 14:57:39;;;;;;;7.07;6.37;;;;;;;16.54;53.08;100503.56;5089560;28;42325;-78
2022/11/11 15:00:28;;;;;;;7.67;6.97;;;;;;;16.21;54.26;100500.22;5091977;28;39752;-82
2022/11/11 15:03:24;;;;;;;8.07;7.20;;;;;;;15.77;55.96;100487.66;5091470;28;40759;-83
2022/11/11 15:06:17;;;;;;;9.67;8.67;;;;;;;15.52;56.37;100495.31;5072896;28;41586;-81
2022/11/11 15:09:14;;;;;;;10.40;7.57;;;;;;;15.30;56.28;100506.34;5091333;28;41047;-84
2022/11/11 15:12:08;;;;;;;8.50;7.70;;;;;;;14.93;58.25;100481.69;5089969;28;40710;-80
2022/11/11 15:15:04;;;;;;;8.80;7.93;;;;;;;14.79;57.55;100494.91;5091324;28;43086;-81
2022/11/11 15:18:01;;;;;;;7.60;6.80;;;;;;;14.51;58.01;100495.50;5091539;28;42937;-80
2022/11/11 15:21:00;;;;;;;7.23;6.53;;;;;;;14.35;57.79;100510.53;5092198;28;42219;-81
2022/11/11 15:23:57;;;;;;;8.97;7.10;;;;;;;14.07;57.92;100500.44;5073602;28;38777;-79
2022/11/11 15:26:52;;;;;;;7.73;7.03;;;;;;;13.93;58.07;100514.47;5092001;28;42478;-81
2022/11/11 15:29:53;;;;;;;7.73;5.60;;;;;;;13.75;59.08;100515.34;5092778;28;43514;-81
2022/11/11 15:32:55;;;;;;;8.93;8.00;;;;;;;13.52;59.92;100512.94;5092415;28;42267;-80
2022/11/11 15:35:46;;;;;;;8.93;7.93;;;;;;;13.32;59.78;100513.06;5091639;28;40691;-79
2022/11/11 15:38:32;;;;;;;7.97;7.17;;;;;;;13.01;59.81;100490.50;5091015;28;41657;-80
2022/11/11 15:41:25;;;;;;;6.97;6.27;;;;;;;12.92;59.38;100506.88;5091039;28;42118;-81
2022/11/11 15:44:19;;;;;;;6.77;6.23;;;;;;;12.76;59.64;100517.34;5091122;28;43587;-79
2022/11/11 15:47:06;;;;;;;8.77;7.07;;;;;;;12.58;60.01;100519.03;5089325;28;40015;-80
2022/11/11 15:49:52;;;;;;;7.30;5.97;;;;;;;12.41;59.90;100521.56;5091016;28;40868;-79
2022/11/11 15:52:38;;;;;;;8.20;7.27;;;;;;;12.26;60.44;100531.97;5090190;28;43672;-80
2022/11/11 15:55:27;;;;;;;7.77;6.97;;;;;;;12.06;60.34;100519.56;5090453;28;42431;-79
2022/11/11 15:58:18;;;;;;;7.70;6.77;;;;;;;11.94;60.58;100525.38;5089284;28;40203;-85
2022/11/11 16:01:07;;;;;;;7.30;6.33;;;;;;;11.65;60.82;100498.19;5091618;28;41210;-78
2022/11/11 16:03:54;;;;;;;9.60;7.80;;;;;;;11.61;61.15;100517.84;5090582;28;42036;-90
2022/11/11 16:06:40;;;;;;;9.20;7.80;;;;;;;11.50;61.04;100525.34;5088733;28;42161;-86
2022/11/11 16:09:29;;;;;;;9.20;7.30;;;;;;;11.26;61.44;100502.44;5090701;28;39038;-89
2022/11/11 16:12:20;;;;;;;11.27;8.37;;;;;;;11.23;61.21;100516.69;5089091;28;41624;-82
2022/11/11 16:15:09;;;;;;;7.40;6.70;;;;;;;11.11;61.64;100517.19;5090405;28;43660;-80
2022/11/11 16:18:01;;;;;;;9.60;7.43;;;;;;;10.87;62.03;100497.75;5090518;28;41757;-84
2022/11/11 16:20:52;;;;;;;7.13;6.43;;;;;;;10.88;62.08;100515.34;5090345;28;40237;-79
2022/11/11 16:23:39;;;;;;;8.13;6.90;;;;;;;10.40;61.84;100459.75;5090752;28;43508;-84
2022/11/11 16:26:26;;;;;;;9.53;7.83;;;;;;;10.63;62.33;100517.22;5091134;28;42099;-79
2022/11/11 16:29:15;;;;;;;8.33;7.47;;;;;;;10.55;62.55;100521.91;5090263;28;42849;-78
2022/11/11 16:32:18;;;;;;;9.40;7.87;;;;;;;10.35;62.65;100502.31;5090395;28;40455;-79
2022/11/11 16:35:31;;;;;;;8.83;7.30;;;;;;;10.34;62.63;100523.53;5091413;28;41813;-79
2022/11/11 16:38:31;;;;;;;7.47;6.53;;;;;;;10.20;62.83;100521.38;5088312;28;42686;-78
2022/11/11 16:41:26;;;;;;;7.33;6.27;;;;;;;9.99;62.94;100501.75;5071355;28;42017;-79
2022/11/11 16:44:33;;;;;;;9.17;6.77;;;;;;;10.01;63.48;100520.25;5090288;28;41319;-78
2022/11/11 16:47:42;;;;;;;7.03;6.00;;;;;;;9.92;65.48;100509.94;5088665;28;41742;-79
2022/11/11 16:50:29;;;;;;;9.63;7.33;;;;;;;9.83;64.43;100518.19;5090335;28;42276;-78
2022/11/11 16:53:29;;;;;;;8.87;7.37;;;;;;;9.72;64.38;100524.69;5088484;28;42574;-78
2022/11/11 16:56:24;;;;;;;8.50;7.70;;;;;;;9.56;64.50;100502.28;5089928;28;39855;-80
2022/11/11 16:59:15;;;;;;;6.40;5.80;;;;;;;9.53;64.52;100507.66;5089794;28;41351;-79
2022/11/11 17:02:01;;;;;;;9.53;8.23;;;;;;;9.50;64.48;100514.84;5090639;28;41828;-79
2022/11/11 17:04:50;;;;;;;7.97;7.17;;;;;;;9.37;64.72;100506.44;5092462;28;42079;-79
2022/11/11 17:07:37;;;;;;;8.30;7.43;;;;;;;9.32;64.76;100516.28;5091993;28;39997;-79
2022/11/11 17:10:27;;;;;;;7.40;6.67;;;;;;;9.27;64.54;100516.41;5094111;28;41855;-78
2022/11/11 17:13:14;;;;;;;8.73;7.83;;;;;;;9.20;64.81;100514.88;5093673;28;41860;-78
2022/11/11 17:16:03;;;;;;;7.77;6.97;;;;;;;9.13;64.74;100518.66;5094892;28;42235;-79
2022/11/11 17:18:49;;;;;;;8.93;7.83;;;;;;;9.05;64.88;100515.34;5074368;28;40367;-79
2022/11/11 17:21:37;;;;;;;8.57;7.67;;;;;;;8.99;65.29;100519.06;5093646;28;41032;-79
2022/11/11 17:24:23;;;;;;;9.27;7.27;;;;;;;8.94;65.51;100528.00;5093165;28;41625;-79
2022/11/11 17:27:09;;;;;;;8.57;6.93;;;;;;;8.91;65.93;100518.38;5091597;28;43248;-79
2022/11/11 17:29:55;;;;;;;8.57;7.67;;;;;;;8.72;66.11;100490.78;5093427;28;40867;-80
2022/11/11 17:32:42;;;;;;;8.63;6.57;;;;;;;8.77;65.96;100504.75;5093730;28;41004;-79
2022/11/11 17:35:28;;;;;;;8.70;6.90;;;;;;;8.86;66.18;100520.31;5094192;28;43846;-79
2022/11/11 17:38:15;;;;;;;13.17;8.60;;;;;;;8.85;66.87;100517.72;5091630;28;43227;-78
2022/11/11 17:41:02;;;;;;;9.37;7.97;;;;;;;8.83;66.51;100515.09;5093110;28;38791;-78
2022/11/11 17:43:48;;;;;;;9.93;8.40;;;;;;;8.82;66.58;100521.31;5094932;28;41911;-79
2022/11/11 17:46:34;;;;;;;9.10;7.50;;;;;;;8.82;66.56;100523.06;5094666;28;42915;-78
2022/11/11 17:49:21;;;;;;;10.33;7.17;;;;;;;8.84;66.85;100514.19;5092241;28;42280;-79
2022/11/11 17:52:07;;;;;;;14.10;8.40;;;;;;;8.85;67.04;100517.72;5094001;28;39897;-78
2022/11/11 17:54:55;;;;;;;8.13;7.40;;;;;;;8.84;67.56;100516.84;5093373;28;40443;-78
2022/11/11 17:57:41;;;;;;;8.80;7.80;;;;;;;8.84;67.77;100515.97;5093346;28;41757;-78
2022/11/11 18:00:27;;;;;;;8.20;7.40;;;;;;;8.83;67.79;100519.53;5093189;28;41436;-78
2022/11/11 18:03:14;;;;;;;7.40;6.70;;;;;;;8.83;67.75;100525.69;5093437;28;40203;-78
2022/11/11 18:06:01;;;;;;;7.77;6.73;;;;;;;8.70;67.90;100508.44;5094376;28;42597;-79
2022/11/11 18:08:47;;;;;;;8.20;7.20;;;;;;;8.80;67.55;100541.59;5091072;28;44391;-79
2022/11/11 18:11:36;;;;;;;7.50;6.67;;;;;;;8.79;67.62;100537.22;5093713;28;42896;-79
2022/11/11 18:14:23;;;;;;;9.47;7.57;;;;;;;8.78;67.84;100543.44;5093033;28;39347;-79
2022/11/11 18:17:09;;;;;;;13.23;9.20;;;;;;;8.76;67.47;100537.34;5093585;28;40836;-79
2022/11/11 18:19:55;;;;;;;8.27;7.23;;;;;;;8.74;67.92;100543.56;5092471;28;42922;-79
2022/11/11 18:22:41;;;;;;;9.20;8.30;;;;;;;8.71;67.45;100541.88;5092820;28;42667;-79
2022/11/11 18:25:28;;;;;;;11.30;9.57;;;;;;;8.56;68.29;100522.03;5093018;28;38835;-78
2022/11/11 18:28:15;;;;;;;8.37;7.57;;;;;;;8.57;68.69;100536.09;5093477;28;41914;-78
2022/11/11 18:31:04;;;;;;;8.90;8.00;;;;;;;8.50;68.81;100538.06;5092325;28;41750;-79
2022/11/11 18:33:51;;;;;;;7.03;6.40;;;;;;;8.43;68.61;100535.59;5092430;28;41064;-79
2022/11/11 18:36:37;;;;;;;7.13;6.43;;;;;;;8.42;68.59;100541.78;5091154;28;39897;-79
2022/11/11 18:39:23;;;;;;;7.27;6.37;;;;;;;8.36;68.83;100555.19;5092918;28;40887;-79
2022/11/11 18:42:09;;;;;;;7.23;6.53;;;;;;;8.30;68.94;100546.47;5092502;28;41909;-79
2022/11/11 18:44:57;;;;;;;6.67;5.97;;;;;;;8.25;69.02;100545.75;5092442;28;41269;-79
2022/11/11 18:47:47;;;;;;;8.70;7.23;;;;;;;8.19;69.26;100537.97;5092579;28;38722;-79
2022/11/11 18:50:33;;;;;;;6.77;5.90;;;;;;;8.11;69.30;100539.94;5092926;28;40873;-78
2022/11/11 18:53:20;;;;;;;5.77;5.27;;;;;;;8.10;69.25;100543.47;5092789;28;41683;-79
2022/11/11 18:56:08;;;;;;;6.23;5.63;;;;;;;8.09;69.28;100541.75;5092804;28;42534;-79
2022/11/11 18:58:57;;;;;;;24.60;7.23;;;;;;;8.07;68.99;100548.84;5090691;28;40448;-78
2022/11/11 19:01:45;;;;;;;6.03;5.43;;;;;;;8.09;69.46;100552.31;5090502;28;42262;-79
2022/11/11 19:04:31;;;;;;;5.57;4.90;;;;;;;8.11;69.40;100553.13;5092240;28;42767;-78
2022/11/11 19:07:17;;;;;;;5.30;4.80;;;;;;;8.14;69.38;100554.84;5089898;28;43199;-79
2022/11/11 19:10:04;;;;;;;6.57;5.97;;;;;;;8.17;69.68;100550.31;5092050;28;40960;-78
2022/11/11 19:12:50;;;;;;;6.03;5.43;;;;;;;8.20;69.75;100559.94;5091803;28;42268;-79
2022/11/11 19:15:37;;;;;;;5.57;5.07;;;;;;;8.14;69.41;100539.88;5091502;28;42811;-78
2022/11/11 19:18:25;;;;;;;4.87;4.20;;;;;;;8.27;69.18;100557.13;5089950;28;43241;-79
2022/11/11 19:21:14;;;;;;;5.60;5.07;;;;;;;8.29;69.27;100563.22;5091900;28;40772;-79
2022/11/11 19:24:01;;;;;;;7.87;5.63;;;;;;;8.26;69.61;100544.84;5091187;28;41810;-79
2022/11/11 19:26:49;;;;;;;7.27;5.60;;;;;;;8.33;70.13;100565.81;5091720;28;41741;-79
2022/11/11 19:29:36;;;;;;;6.83;6.13;;;;;;;8.32;70.56;100559.66;5092463;28;40810;-79
2022/11/11 19:32:22;;;;;;;9.63;7.43;;;;;;;8.31;70.49;100557.88;5093631;28;40596;-79
2022/11/11 19:35:10;;;;;;;11.47;10.27;;;;;;;8.30;71.92;100557.03;5092614;28;42834;-79
2022/11/11 19:37:56;;;;;;;15.37;11.77;;;;;;;8.15;71.66;100538.09;5093567;28;43213;-79
2022/11/11 19:40:42;;;;;;;16.10;11.83;;;;;;;8.09;71.43;100536.47;5095687;28;42732;-79
2022/11/11 19:43:29;;;;;;;13.20;11.03;;;;;;;8.06;71.80;100540.94;5094241;28;40308;-79
2022/11/11 19:46:18;;;;;;;13.43;10.77;;;;;;;8.19;71.86;100574.91;5092250;28;42091;-79
2022/11/11 19:49:05;;;;;;;19.53;12.20;;;;;;;8.09;71.92;100554.06;5086413;28;43215;-85
2022/11/11 19:51:53;;;;;;;16.40;13.00;;;;;;;8.07;72.22;100556.75;5091219;28;43182;-79
2022/11/11 19:54:39;;;;;;;14.23;11.73;;;;;;;8.14;72.83;100568.91;5088997;28;40259;-79
2022/11/11 19:57:25;;;;;;;16.37;12.77;;;;;;;8.07;72.57;100555.88;5092277;28;42392;-80
2022/11/11 20:00:13;;;;;;;14.00;10.97;;;;;;;8.20;72.36;100581.94;5089077;28;42848;-79
2022/11/11 20:03:01;;;;;;;12.83;10.73;;;;;;;8.21;72.52;100588.94;5091509;28;41255;-80
2022/11/11 20:05:48;;;;;;;12.53;11.23;;;;;;;8.21;73.37;100594.22;5090787;28;40041;-80
2022/11/11 20:08:36;;;;;;;12.73;9.90;;;;;;;8.05;73.84;100560.31;5090700;28;43766;-77
2022/11/11 20:11:24;;;;;;;13.83;10.37;;;;;;;8.13;73.95;100590.91;5090956;28;43672;-79
2022/11/11 20:14:11;;;;;;;14.03;12.40;;;;;;;8.07;74.18;100591.06;5090629;28;42546;-80
2022/11/11 20:16:57;;;;;;;18.63;13.00;;;;;;;8.04;73.87;100596.41;5091533;28;39088;-80
2022/11/11 20:19:43;;;;;;;19.20;13.53;;;;;;;7.90;74.02;100580.06;5090584;28;42529;-80
2022/11/11 20:22:30;;;;;;;21.57;14.37;;;;;;;7.94;73.93;100603.66;5091271;28;41675;-80
2022/11/11 20:25:19;;;;;;;25.13;15.40;;;;;;;7.89;74.12;100607.34;5090462;28;41154;-80
2022/11/11 20:28:06;;;;;;;20.40;14.43;;;;;;;7.84;73.75;100606.56;5092134;28;39800;-81
2022/11/11 20:30:51;;;;;;;20.67;14.57;;;;;;;7.68;74.02;100594.63;5088830;28;41449;-80
2022/11/11 20:33:37;;;;;;;19.97;14.00;;;;;;;7.71;74.10;100602.47;5090207;28;42864;-80
2022/11/11 20:36:24;;;;;;;21.47;14.90;;;;;;;7.68;74.39;100597.28;5091445;28;42669;-79
2022/11/11 20:39:13;;;;;;;21.30;14.80;;;;;;;7.66;74.48;100601.72;5090249;28;38934;-84
2022/11/11 20:42:00;;;;;;;21.93;14.43;;;;;;;7.64;74.66;100606.16;5091283;28;40648;-79
2022/11/11 20:44:46;;;;;;;17.60;12.70;;;;;;;7.63;74.64;100601.78;5090765;28;41692;-78
2022/11/11 20:47:33;;;;;;;13.53;10.93;;;;;;;7.60;75.63;100593.94;5091585;28;42479;-78
2022/11/11 20:50:19;;;;;;;13.73;9.90;;;;;;;7.44;75.11;100575.81;5088051;28;40088;-78
2022/11/11 20:53:05;;;;;;;12.20;9.90;;;;;;;7.57;75.12;100603.66;5090677;28;42066;-79
2022/11/11 20:55:51;;;;;;;11.90;9.87;;;;;;;7.55;75.37;100605.44;5090223;28;42036;-78
2022/11/11 20:58:40;;;;;;;12.13;10.63;;;;;;;7.56;75.36;100612.47;5090314;28;41324;-79
2022/11/11 21:01:27;;;;;;;11.87;10.13;;;;;;;7.43;74.85;100586.41;5071818;28;40064;-79
2022/11/11 21:04:14;;;;;;;15.17;12.33;;;;;;;7.46;75.52;100597.75;5078161;28;40945;-79
2022/11/11 21:07:00;;;;;;;14.30;11.37;;;;;;;7.33;75.36;100583.09;5090745;28;41512;-82
2022/11/11 21:09:46;;;;;;;13.53;11.70;;;;;;;7.18;75.40;100568.50;5090955;28;42130;-80
2022/11/11 21:12:32;;;;;;;14.30;12.17;;;;;;;7.36;75.19;100611.16;5090320;28;39296;-79
2022/11/11 21:15:20;;;;;;;13.77;10.93;;;;;;;7.31;75.42;100607.75;5090065;28;41972;-81
2022/11/11 21:18:06;;;;;;;11.53;9.87;;;;;;;7.28;75.48;100613.97;5091880;28;44021;-82
2022/11/11 21:20:52;;;;;;;11.70;9.33;;;;;;;7.24;74.95;100617.56;5090475;28;41146;-79
2022/11/11 21:23:38;;;;;;;12.53;9.13;;;;;;;7.00;75.15;100583.81;5090284;28;39116;-79
2022/11/11 21:26:26;;;;;;;9.27;7.57;;;;;;;7.04;75.24;100596.03;5092435;28;41657;-81
2022/11/11 21:29:12;;;;;;;11.10;8.27;;;;;;;7.06;75.14;100599.50;5089800;28;42804;-82
2022/11/11 21:32:06;;;;;;;8.73;7.80;;;;;;;7.04;75.43;100598.69;5091502;28;41788;-83
2022/11/11 21:34:52;;;;;;;8.93;8.03;;;;;;;7.11;75.61;100616.09;5090080;28;39033;-83
2022/11/11 21:37:38;;;;;;;12.13;8.60;;;;;;;6.99;75.71;100595.25;5090883;28;43433;-82
2022/11/11 21:40:24;;;;;;;11.73;10.30;;;;;;;6.91;76.09;100603.31;5090081;28;43026;-80
2022/11/11 21:43:11;;;;;;;12.10;10.17;;;;;;;6.96;75.75;100616.38;5090627;28;41678;-79
2022/11/11 21:46:02;;;;;;;11.40;9.13;;;;;;;6.88;76.30;100615.69;5090457;28;39899;-78
2022/11/11 21:48:51;;;;;;;9.77;8.07;;;;;;;6.81;75.97;100623.69;5090590;28;42049;-79
2022/11/11 21:51:37;;;;;;;8.30;7.27;;;;;;;6.74;76.01;100622.06;5093804;28;41666;-79
2022/11/11 21:54:24;;;;;;;6.90;6.20;;;;;;;6.61;75.99;100607.41;5090971;28;41454;-81
2022/11/11 21:57:10;;;;;;;7.70;6.23;;;;;;;6.70;75.88;100615.13;5092306;28;38873;-80
2022/11/11 21:59:56;;;;;;;7.90;6.47;;;;;;;6.70;75.69;100622.16;5088441;28;42305;-80
2022/11/11 22:02:42;;;;;;;7.93;6.67;;;;;;;6.72;75.67;100615.97;5092025;28;41891;-80